Time;durP1;ratioP1;P1;durP2;ratioP2;P2;SDS_P1;SDS_P2;PMS_P1;PMS_P2;Temp;Humidity;BMP_temperature;BMP_pressure;BME280_temperature;BME280_humidity;BME280_pressure;Samples;Min_cycle;Max_cycle;Signal;HPM_P1;HPM_P2
2023/12/17 00:01:31;;;;;;;26.37;22.70;;;10.00;99.90;;;;;;5035047;28;20937;-80
2023/12/17 00:03:59;;;;;;;25.10;22.50;;;10.00;99.90;;;;;;5036444;28;20459;-78
2023/12/17 00:06:29;;;;;;;25.33;22.73;;;10.00;99.90;;;;;;5034461;28;20471;-80
2023/12/17 00:08:57;;;;;;;24.67;22.07;;;10.00;99.90;;;;;;5034186;28;20451;-79
2023/12/17 00:11:26;;;;;;;24.00;21.60;;;10.00;99.90;;;;;;5034710;28;20459;-79
2023/12/17 00:13:54;;;;;;;23.37;21.00;;;10.10;99.90;;;;;;5036109;28;20502;-79
2023/12/17 00:16:22;;;;;;;25.50;22.43;;;10.00;99.90;;;;;;5034593;28;20442;-80
2023/12/17 00:18:50;;;;;;;22.50;19.60;;;10.10;99.90;;;;;;5036479;28;20443;-80
2023/12/17 00:21:19;;;;;;;21.90;19.60;;;10.10;99.90;;;;;;5034624;28;20463;-79
2023/12/17 00:23:49;;;;;;;20.87;18.70;;;10.10;99.90;;;;;;5034693;28;20473;-79
2023/12/17 00:26:17;;;;;;;21.57;19.27;;;10.10;99.90;;;;;;5034589;28;20482;-80
2023/12/17 00:28:46;;;;;;;19.67;17.60;;;10.10;99.90;;;;;;5034673;28;20447;-80
2023/12/17 00:31:14;;;;;;;21.50;19.47;;;10.10;99.90;;;;;;5035849;28;20443;-79
2023/12/17 00:33:42;;;;;;;19.67;17.73;;;10.10;99.90;;;;;;5034437;28;20545;-79
2023/12/17 00:36:11;;;;;;;20.90;18.80;;;10.20;99.90;;;;;;5036580;28;20447;-79
2023/12/17 00:38:39;;;;;;;18.20;16.40;;;10.20;99.90;;;;;;5037911;28;20928;-79
2023/12/17 00:41:09;;;;;;;19.53;17.60;;;10.20;99.90;;;;;;5038225;28;20983;-79
2023/12/17 00:43:38;;;;;;;18.37;16.50;;;10.20;99.90;;;;;;5037618;28;20450;-80
2023/12/17 00:46:06;;;;;;;19.40;17.60;;;10.20;99.90;;;;;;5038121;28;20459;-79
2023/12/17 00:48:35;;;;;;;17.63;15.80;;;10.20;99.90;;;;;;5037471;28;20442;-79
2023/12/17 00:51:04;;;;;;;18.00;16.20;;;10.20;99.90;;;;;;5037775;28;20831;-79
2023/12/17 00:53:32;;;;;;;17.80;15.90;;;10.20;99.90;;;;;;5037841;28;20450;-79
2023/12/17 00:56:00;;;;;;;16.50;14.90;;;10.20;99.90;;;;;;5037440;28;20447;-79
2023/12/17 00:58:30;;;;;;;16.50;14.97;;;10.20;99.90;;;;;;5038525;28;20427;-79
2023/12/17 01:00:58;;;;;;;15.40;13.90;;;10.20;99.90;;;;;;5037177;28;20455;-79
2023/12/17 01:03:27;;;;;;;16.20;14.70;;;10.20;99.90;;;;;;5037628;28;20956;-80
2023/12/17 01:05:55;;;;;;;15.10;13.60;;;10.20;99.90;;;;;;5037134;28;20470;-78
2023/12/17 01:08:24;;;;;;;16.07;14.47;;;10.20;99.90;;;;;;5036945;28;20474;-80
2023/12/17 01:10:52;;;;;;;14.50;13.10;;;10.20;99.90;;;;;;5037080;28;20983;-79
2023/12/17 01:13:21;;;;;;;13.57;12.30;;;10.20;99.90;;;;;;5038884;28;20489;-79
2023/12/17 01:15:52;;;;;;;16.47;13.80;;;10.30;99.90;;;;;;5037219;28;20823;-79
2023/12/17 01:18:20;;;;;;;14.23;12.93;;;10.30;99.90;;;;;;5037015;28;20450;-79
2023/12/17 01:20:49;;;;;;;15.07;13.70;;;10.20;99.90;;;;;;5038211;28;20447;-79
2023/12/17 01:23:17;;;;;;;14.30;12.83;;;10.30;99.90;;;;;;5037969;28;20455;-78
2023/12/17 01:25:45;;;;;;;14.80;13.40;;;10.30;99.90;;;;;;5036690;28;20466;-79
2023/12/17 01:28:14;;;;;;;16.23;12.63;;;10.30;99.90;;;;;;5037798;28;20976;-79
2023/12/17 01:30:42;;;;;;;14.07;12.77;;;10.30;99.90;;;;;;5038703;28;20435;-80
2023/12/17 01:33:12;;;;;;;12.87;11.77;;;10.30;99.90;;;;;;5038603;28;20475;-79
2023/12/17 01:35:41;;;;;;;13.47;12.03;;;10.30;99.90;;;;;;5037824;28;20522;-80
2023/12/17 01:38:10;;;;;;;13.30;12.10;;;10.30;99.90;;;;;;5037527;28;20455;-79
2023/12/17 01:40:39;;;;;;;15.10;12.60;;;10.30;99.90;;;;;;5037778;28;20443;-79
2023/12/17 01:43:08;;;;;;;14.40;13.10;;;10.30;99.90;;;;;;5037008;28;20913;-79
2023/12/17 01:45:37;;;;;;;14.20;12.73;;;10.30;99.90;;;;;;5037714;28;20463;-79
2023/12/17 01:48:06;;;;;;;13.17;11.97;;;10.30;99.90;;;;;;5037523;28;20478;-80
2023/12/17 01:50:36;;;;;;;13.67;12.37;;;10.30;99.90;;;;;;5039009;28;20534;-79
2023/12/17 01:53:05;;;;;;;12.57;11.50;;;10.30;99.90;;;;;;5037621;28;20459;-79
2023/12/17 01:55:35;;;;;;;12.97;11.83;;;10.30;99.90;;;;;;5037404;28;20470;-79
2023/12/17 01:58:04;;;;;;;11.57;10.53;;;10.30;99.90;;;;;;5038502;28;20421;-79
2023/12/17 02:00:33;;;;;;;12.90;11.80;;;10.30;99.90;;;;;;5037124;28;20554;-79
2023/12/17 02:03:02;;;;;;;13.77;12.37;;;10.30;99.90;;;;;;5036956;28;20454;-79
2023/12/17 02:05:34;;;;;;;12.50;11.30;;;10.30;99.90;;;;;;5036835;28;20806;-79
2023/12/17 02:08:05;;;;;;;12.93;11.83;;;10.30;99.90;;;;;;5036641;28;20466;-79
2023/12/17 02:10:33;;;;;;;13.10;12.00;;;10.30;99.90;;;;;;5036859;28;20944;-79
2023/12/17 02:13:02;;;;;;;12.13;11.00;;;10.30;99.90;;;;;;5037883;28;20443;-79
2023/12/17 02:15:30;;;;;;;13.17;11.97;;;10.30;99.90;;;;;;5035934;28;20470;-79
2023/12/17 02:17:59;;;;;;;12.73;11.40;;;10.40;99.90;;;;;;5036708;28;20448;-79
2023/12/17 02:20:27;;;;;;;11.90;10.90;;;10.30;99.90;;;;;;5036321;28;20454;-78
2023/12/17 02:22:58;;;;;;;11.97;10.87;;;10.30;99.90;;;;;;5036351;28;20450;-79
2023/12/17 02:25:31;;;;;;;12.73;11.63;;;10.30;99.90;;;;;;5036245;28;21071;-80
2023/12/17 02:28:00;;;;;;;10.37;9.40;;;10.30;99.90;;;;;;5036538;28;20462;-78
2023/12/17 02:30:28;;;;;;;13.27;12.07;;;10.30;99.90;;;;;;5036401;28;20818;-79
2023/12/17 02:32:57;;;;;;;12.97;11.60;;;10.30;99.90;;;;;;5036010;28;20459;-79
2023/12/17 02:35:25;;;;;;;13.03;11.57;;;10.30;99.90;;;;;;5036264;28;20474;-79
2023/12/17 02:37:54;;;;;;;12.80;11.60;;;10.30;99.90;;;;;;5036329;28;20509;-80
2023/12/17 02:40:22;;;;;;;13.43;12.13;;;10.30;99.90;;;;;;5037359;28;20431;-79
2023/12/17 02:42:52;;;;;;;11.80;10.80;;;10.30;99.90;;;;;;5035791;28;20454;-79
2023/12/17 02:45:21;;;;;;;12.57;11.33;;;10.30;99.90;;;;;;5035779;28;20470;-79
2023/12/17 02:47:49;;;;;;;13.33;11.93;;;10.30;99.90;;;;;;5035974;28;20991;-79
2023/12/17 02:50:18;;;;;;;11.57;10.57;;;10.30;99.90;;;;;;5035271;28;20452;-78
2023/12/17 02:52:46;;;;;;;15.50;12.20;;;10.30;99.90;;;;;;5035511;28;20459;-78
2023/12/17 02:55:15;;;;;;;12.33;11.07;;;10.30;99.90;;;;;;5035153;28;20478;-79
2023/12/17 02:57:43;;;;;;;12.77;11.50;;;10.30;99.90;;;;;;5035616;28;20462;-78
2023/12/17 03:00:15;;;;;;;13.37;12.13;;;10.30;99.90;;;;;;5035380;28;20443;-79
2023/12/17 03:02:43;;;;;;;12.37;11.17;;;10.30;99.90;;;;;;5035121;28;20447;-79
2023/12/17 03:05:11;;;;;;;12.50;11.20;;;10.30;99.90;;;;;;5036577;28;20459;-79
2023/12/17 03:07:40;;;;;;;12.70;11.60;;;10.30;99.90;;;;;;5035814;28;20882;-78
2023/12/17 03:10:09;;;;;;;12.57;11.33;;;10.30;99.90;;;;;;5035924;28;20463;-79
2023/12/17 03:12:38;;;;;;;12.23;11.03;;;10.30;99.90;;;;;;5037445;28;20436;-79
2023/12/17 03:15:07;;;;;;;12.93;11.30;;;10.30;99.90;;;;;;5035756;28;20471;-79
2023/12/17 03:17:37;;;;;;;12.10;11.10;;;10.30;99.90;;;;;;5036394;28;20447;-79
2023/12/17 03:20:07;;;;;;;13.03;11.73;;;10.30;99.90;;;;;;5037206;28;20927;-79
2023/12/17 03:22:35;;;;;;;12.30;11.20;;;10.30;99.90;;;;;;5035225;28;20451;-79
2023/12/17 03:25:04;;;;;;;11.90;10.80;;;10.30;99.90;;;;;;5034848;28;20470;-79
2023/12/17 03:27:32;;;;;;;12.57;11.57;;;10.30;99.90;;;;;;5034753;28;20461;-79
2023/12/17 03:30:00;;;;;;;11.70;10.70;;;10.30;99.90;;;;;;5035230;28;20505;-78
2023/12/17 03:32:29;;;;;;;13.00;11.90;;;10.30;99.90;;;;;;5034900;28;20439;-79
2023/12/17 03:34:59;;;;;;;12.23;11.00;;;10.30;99.90;;;;;;5034725;28;20528;-79
2023/12/17 03:37:29;;;;;;;11.07;10.10;;;10.30;99.90;;;;;;5034631;28;20454;-78
2023/12/17 03:39:57;;;;;;;11.40;10.40;;;10.30;99.90;;;;;;5034563;28;20873;-78
2023/12/17 03:42:26;;;;;;;13.40;11.60;;;10.30;99.90;;;;;;5035782;28;20438;-79
2023/12/17 03:44:54;;;;;;;11.30;10.27;;;10.30;99.90;;;;;;5035678;28;20868;-78
2023/12/17 03:47:22;;;;;;;11.67;10.60;;;10.30;99.90;;;;;;5034029;28;20442;-79
2023/12/17 03:49:50;;;;;;;10.43;9.50;;;10.30;99.90;;;;;;5034047;28;20513;-79
2023/12/17 03:52:20;;;;;;;12.50;9.87;;;10.30;99.90;;;;;;5033922;28;20485;-79
2023/12/17 03:54:48;;;;;;;12.67;11.47;;;10.30;99.90;;;;;;5033898;28;20506;-79
2023/12/17 03:57:16;;;;;;;11.67;10.67;;;10.30;99.90;;;;;;5033899;28;20482;-79
2023/12/17 03:59:45;;;;;;;11.73;10.63;;;10.30;99.90;;;;;;5033989;28;20439;-78
2023/12/17 04:02:13;;;;;;;12.00;10.87;;;10.30;99.90;;;;;;5035353;28;20442;-78
2023/12/17 04:04:41;;;;;;;13.33;12.00;;;10.30;99.90;;;;;;5034016;28;20539;-78
2023/12/17 04:07:09;;;;;;;11.03;9.90;;;10.30;99.90;;;;;;5033614;28;20963;-77
2023/12/17 04:09:39;;;;;;;13.00;11.90;;;10.30;99.90;;;;;;5034873;28;20979;-78
2023/12/17 04:12:08;;;;;;;13.40;11.07;;;10.30;99.90;;;;;;5037558;28;20486;-79
2023/12/17 04:14:36;;;;;;;12.57;11.27;;;10.30;99.90;;;;;;5037101;28;20486;-79
2023/12/17 04:17:04;;;;;;;11.97;10.97;;;10.30;99.90;;;;;;5037893;28;20455;-80
2023/12/17 04:19:33;;;;;;;11.80;10.90;;;10.30;99.90;;;;;;5037165;28;20447;-78
2023/12/17 04:22:01;;;;;;;12.80;11.60;;;10.30;99.90;;;;;;5038559;28;20451;-78
2023/12/17 04:24:29;;;;;;;13.33;12.00;;;10.30;99.90;;;;;;5038460;28;20502;-79
2023/12/17 04:26:59;;;;;;;12.83;11.47;;;10.30;99.90;;;;;;5038888;28;20971;-78
2023/12/17 04:29:27;;;;;;;12.10;11.10;;;10.30;99.90;;;;;;5036680;28;20837;-77
2023/12/17 04:31:55;;;;;;;13.40;12.17;;;10.30;99.90;;;;;;5036794;28;20547;-79
2023/12/17 04:34:24;;;;;;;13.40;11.67;;;10.40;99.90;;;;;;5036976;28;20510;-78
2023/12/17 04:36:53;;;;;;;12.97;11.87;;;10.40;99.90;;;;;;5036912;28;20541;-78
2023/12/17 04:39:22;;;;;;;12.63;11.43;;;10.40;99.90;;;;;;5037465;28;20455;-79
2023/12/17 04:41:50;;;;;;;13.03;11.77;;;10.40;99.90;;;;;;5040363;28;20442;-80
2023/12/17 04:44:20;;;;;;;12.40;11.40;;;10.40;99.90;;;;;;5041536;28;20471;-79
2023/12/17 04:46:48;;;;;;;13.07;11.83;;;10.40;99.90;;;;;;5042219;28;20450;-79
2023/12/17 04:49:16;;;;;;;15.07;13.77;;;10.40;99.90;;;;;;5041739;28;20473;-78
2023/12/17 04:51:45;;;;;;;14.73;13.33;;;10.40;99.90;;;;;;5041245;28;20443;-80
2023/12/17 04:54:14;;;;;;;13.60;12.40;;;10.40;99.90;;;;;;5040860;28;20489;-79
2023/12/17 04:56:42;;;;;;;14.00;12.50;;;10.40;99.90;;;;;;5040663;28;20454;-79
2023/12/17 04:59:11;;;;;;;13.67;12.47;;;10.40;99.90;;;;;;5041060;28;20446;-79
2023/12/17 05:01:40;;;;;;;12.67;11.60;;;10.40;99.90;;;;;;5041445;28;20477;-79
2023/12/17 05:04:08;;;;;;;12.90;11.80;;;10.40;99.90;;;;;;5039197;28;20475;-79
2023/12/17 05:06:37;;;;;;;14.97;12.70;;;10.40;99.90;;;;;;5039769;28;20498;-79
2023/12/17 05:09:05;;;;;;;13.60;12.50;;;10.40;99.90;;;;;;5040498;28;20814;-79
2023/12/17 05:11:33;;;;;;;13.47;12.37;;;10.40;99.90;;;;;;5039435;28;20472;-79
2023/12/17 05:14:02;;;;;;;13.47;12.37;;;10.40;99.90;;;;;;5039833;28;20458;-79
2023/12/17 05:16:30;;;;;;;12.53;11.43;;;10.40;99.90;;;;;;5038261;28;20451;-79
2023/12/17 05:19:00;;;;;;;14.03;12.70;;;10.40;99.90;;;;;;5038901;28;20822;-79
2023/12/17 05:21:28;;;;;;;13.97;12.77;;;10.40;99.90;;;;;;5037828;28;20830;-79
2023/12/17 05:23:56;;;;;;;13.30;11.90;;;10.40;99.90;;;;;;5038321;28;20471;-79
2023/12/17 05:26:25;;;;;;;13.60;12.30;;;10.40;99.90;;;;;;5038286;28;20450;-79
2023/12/17 05:28:53;;;;;;;13.13;11.83;;;10.40;99.90;;;;;;5039417;28;20534;-79
2023/12/17 05:31:21;;;;;;;13.07;11.87;;;10.40;99.90;;;;;;5038111;28;20948;-79
2023/12/17 05:33:50;;;;;;;14.30;13.00;;;10.40;99.90;;;;;;5038179;28;20497;-80
2023/12/17 05:36:20;;;;;;;14.37;11.63;;;10.40;99.90;;;;;;5037939;28;20451;-79
2023/12/17 05:38:47;;;;;;;13.10;12.00;;;10.40;99.90;;;;;;5038069;28;20443;-79
2023/12/17 05:41:15;;;;;;;13.20;11.90;;;10.40;99.90;;;;;;5038037;28;20443;-79
2023/12/17 05:43:43;;;;;;;13.97;12.60;;;10.40;99.90;;;;;;5039257;28;20839;-79
2023/12/17 05:46:11;;;;;;;13.30;12.10;;;10.40;99.90;;;;;;5038996;28;20489;-79
2023/12/17 05:48:40;;;;;;;14.97;12.87;;;10.40;99.90;;;;;;5037311;28;20486;-79
2023/12/17 05:51:09;;;;;;;13.47;12.27;;;10.40;99.90;;;;;;5037245;28;20470;-79
2023/12/17 05:53:38;;;;;;;13.40;12.00;;;10.40;99.90;;;;;;5037262;28;20881;-79
2023/12/17 05:56:14;;;;;;;12.77;11.67;;;10.40;99.90;;;;;;5037358;28;21031;-78
2023/12/17 05:58:43;;;;;;;13.60;12.30;;;10.40;99.90;;;;;;5038538;28;20538;-78
2023/12/17 06:01:12;;;;;;;13.03;11.50;;;10.40;99.90;;;;;;5037308;28;20447;-77
2023/12/17 06:03:41;;;;;;;14.73;11.90;;;10.40;99.90;;;;;;5037004;28;21014;-79
2023/12/17 06:06:09;;;;;;;12.83;11.00;;;10.40;99.90;;;;;;5037134;28;20459;-80
2023/12/17 06:08:39;;;;;;;13.00;11.83;;;10.40;99.90;;;;;;5037034;28;20458;-79
2023/12/17 06:11:07;;;;;;;12.30;11.20;;;10.40;99.90;;;;;;5038371;28;20463;-78
2023/12/17 06:13:36;;;;;;;12.50;11.20;;;10.40;99.90;;;;;;5037136;28;20866;-79
2023/12/17 06:16:05;;;;;;;15.00;12.73;;;10.40;99.90;;;;;;5037075;28;20509;-79
2023/12/17 06:18:33;;;;;;;12.33;11.10;;;10.40;99.90;;;;;;5037899;28;20534;-78
2023/12/17 06:21:02;;;;;;;13.10;11.90;;;10.40;99.90;;;;;;5037684;28;20450;-79
2023/12/17 06:23:31;;;;;;;13.17;11.87;;;10.40;99.90;;;;;;5036676;28;20455;-79
2023/12/17 06:26:04;;;;;;;13.90;12.70;;;10.40;99.90;;;;;;5037923;28;20498;-79
2023/12/17 06:28:32;;;;;;;13.20;11.90;;;10.40;99.90;;;;;;5037385;28;20855;-79
2023/12/17 06:31:01;;;;;;;13.00;12.00;;;10.40;99.90;;;;;;5036605;28;20471;-79
2023/12/17 06:33:29;;;;;;;12.53;11.23;;;10.40;99.90;;;;;;5035879;28;20463;-79
2023/12/17 06:35:58;;;;;;;15.37;13.07;;;10.40;99.90;;;;;;5037972;28;20559;-79
2023/12/17 06:38:26;;;;;;;14.10;12.60;;;10.40;99.90;;;;;;5036463;28;20501;-79
2023/12/17 06:40:55;;;;;;;14.97;13.53;;;10.40;99.90;;;;;;5036370;28;20965;-79
2023/12/17 06:43:25;;;;;;;13.43;12.13;;;10.40;99.90;;;;;;5036226;28;20513;-79
2023/12/17 06:45:53;;;;;;;14.73;13.40;;;10.40;99.90;;;;;;5036831;28;20471;-79
2023/12/17 06:48:21;;;;;;;13.67;12.30;;;10.40;99.90;;;;;;5036128;28;20458;-79
2023/12/17 06:50:50;;;;;;;14.30;13.00;;;10.40;99.90;;;;;;5035894;28;20466;-79
2023/12/17 06:53:18;;;;;;;13.93;12.63;;;10.40;99.90;;;;;;5037737;28;20431;-79
2023/12/17 06:55:47;;;;;;;13.37;12.27;;;10.40;99.90;;;;;;5036053;28;20488;-79
2023/12/17 06:58:15;;;;;;;13.73;12.53;;;10.30;99.90;;;;;;5036097;28;20451;-78
2023/12/17 07:00:45;;;;;;;14.90;13.57;;;10.40;99.90;;;;;;5036154;28;20447;-80
2023/12/17 07:03:14;;;;;;;13.80;12.53;;;10.40;99.90;;;;;;5036337;28;20493;-79
2023/12/17 07:05:42;;;;;;;14.93;13.47;;;10.40;99.90;;;;;;5036452;28;20481;-79
2023/12/17 07:08:10;;;;;;;13.63;12.43;;;10.40;99.90;;;;;;5035342;28;20451;-79
2023/12/17 07:10:39;;;;;;;14.40;13.10;;;10.40;99.90;;;;;;5035560;28;20478;-78
2023/12/17 07:13:07;;;;;;;14.57;13.33;;;10.40;99.90;;;;;;5036021;28;20451;-79
2023/12/17 07:15:35;;;;;;;14.47;13.07;;;10.30;99.90;;;;;;5035608;28;20971;-79
2023/12/17 07:18:05;;;;;;;14.80;13.30;;;10.40;99.90;;;;;;5037011;28;20470;-79
2023/12/17 07:20:34;;;;;;;15.03;13.77;;;10.40;99.90;;;;;;5035559;28;20458;-78
2023/12/17 07:23:02;;;;;;;13.03;11.93;;;10.40;99.90;;;;;;5036964;28;20787;-79
2023/12/17 07:25:30;;;;;;;14.03;12.70;;;10.40;99.90;;;;;;5035121;28;20487;-79
2023/12/17 07:27:59;;;;;;;15.03;13.60;;;10.30;99.90;;;;;;5035490;28;20518;-79
2023/12/17 07:30:27;;;;;;;14.60;13.30;;;10.40;99.90;;;;;;5034969;28;20471;-79
2023/12/17 07:32:55;;;;;;;14.20;12.90;;;10.40;99.90;;;;;;5035592;28;20482;-79
2023/12/17 07:35:26;;;;;;;13.87;12.50;;;10.40;99.90;;;;;;5035141;28;20470;-79
2023/12/17 07:37:54;;;;;;;14.80;13.30;;;10.40;99.90;;;;;;5035271;28;20847;-80
2023/12/17 07:40:22;;;;;;;14.77;13.47;;;10.40;99.90;;;;;;5034988;28;21091;-78
2023/12/17 07:42:50;;;;;;;15.83;13.90;;;10.40;99.90;;;;;;5036679;28;20439;-79
2023/12/17 07:45:19;;;;;;;13.80;12.57;;;10.30;99.90;;;;;;5035843;28;20520;-79
2023/12/17 07:47:47;;;;;;;14.77;13.43;;;10.30;99.90;;;;;;5039266;28;20486;-80
2023/12/17 07:50:15;;;;;;;15.77;13.83;;;10.30;99.90;;;;;;5041026;28;20492;-80
2023/12/17 07:52:45;;;;;;;16.13;14.67;;;10.30;99.90;;;;;;5040625;28;20504;-81
2023/12/17 07:55:13;;;;;;;14.57;13.17;;;10.30;99.90;;;;;;5039604;28;20540;-79
2023/12/17 07:57:42;;;;;;;14.73;13.30;;;10.30;99.90;;;;;;5041390;28;20478;-80
2023/12/17 08:00:13;;;;;;;13.60;12.50;;;10.30;99.90;;;;;;5040366;28;20987;-79
2023/12/17 08:02:41;;;;;;;13.47;12.30;;;10.30;99.90;;;;;;5039838;28;20467;-80
2023/12/17 08:05:10;;;;;;;13.90;12.60;;;10.30;99.90;;;;;;5039957;28;20458;-80
2023/12/17 08:07:38;;;;;;;15.67;14.17;;;10.30;99.90;;;;;;5039908;28;20450;-79
2023/12/17 08:10:09;;;;;;;15.33;13.97;;;10.30;99.90;;;;;;5039383;28;20450;-80
2023/12/17 08:12:37;;;;;;;14.60;13.30;;;10.30;99.90;;;;;;5039369;28;20455;-79
2023/12/17 08:15:06;;;;;;;14.40;13.00;;;10.30;99.90;;;;;;5039185;28;20832;-79
2023/12/17 08:17:34;;;;;;;13.77;12.60;;;10.30;99.90;;;;;;5040319;28;20518;-78
2023/12/17 08:20:03;;;;;;;13.83;12.63;;;10.30;99.90;;;;;;5039228;28;20458;-79
2023/12/17 08:22:32;;;;;;;13.03;11.90;;;10.30;99.90;;;;;;5040922;28;20427;-80
2023/12/17 08:25:01;;;;;;;12.77;11.67;;;10.30;99.90;;;;;;5039213;28;20528;-79
2023/12/17 08:27:31;;;;;;;14.17;13.03;;;10.20;99.90;;;;;;5039733;28;20443;-79
2023/12/17 08:30:00;;;;;;;14.80;13.50;;;10.20;99.90;;;;;;5038909;28;20450;-79
2023/12/17 08:32:31;;;;;;;14.57;13.37;;;10.30;99.90;;;;;;5039573;28;20473;-79
2023/12/17 08:35:00;;;;;;;14.73;13.40;;;10.20;99.90;;;;;;5039422;28;20462;-79
2023/12/17 08:37:29;;;;;;;15.27;14.03;;;10.20;99.90;;;;;;5040562;28;20451;-80
2023/12/17 08:39:58;;;;;;;15.03;13.83;;;10.20;99.90;;;;;;5039733;28;20451;-79
2023/12/17 08:42:26;;;;;;;13.23;12.23;;;10.20;99.90;;;;;;5038885;28;20838;-80
2023/12/17 08:44:56;;;;;;;14.30;13.10;;;10.20;99.90;;;;;;5040205;28;20819;-79
2023/12/17 08:47:24;;;;;;;15.10;13.70;;;10.20;99.90;;;;;;5038979;28;20451;-79
2023/12/17 08:49:53;;;;;;;14.60;13.40;;;10.20;99.90;;;;;;5038965;28;20501;-79
2023/12/17 08:52:21;;;;;;;15.63;14.33;;;10.20;99.90;;;;;;5039129;28;20843;-79
2023/12/17 08:54:49;;;;;;;15.90;14.60;;;10.20;99.90;;;;;;5039062;28;20467;-80
2023/12/17 08:57:18;;;;;;;16.00;14.70;;;10.20;99.90;;;;;;5038276;28;20482;-79
2023/12/17 08:59:46;;;;;;;17.40;14.90;;;10.20;99.90;;;;;;5038398;28;20843;-79
2023/12/17 09:02:16;;;;;;;15.97;14.67;;;10.20;99.90;;;;;;5038210;28;20451;-79
2023/12/17 09:04:44;;;;;;;17.67;15.87;;;10.20;99.90;;;;;;5038155;28;20474;-80
2023/12/17 09:07:12;;;;;;;17.40;15.70;;;10.20;99.90;;;;;;5038306;28;20486;-79
2023/12/17 09:09:41;;;;;;;16.83;15.53;;;10.20;99.90;;;;;;5037888;28;21002;-80
2023/12/17 09:12:09;;;;;;;16.73;15.37;;;10.20;99.90;;;;;;5038171;28;20487;-79
2023/12/17 09:14:37;;;;;;;16.93;15.53;;;10.20;99.90;;;;;;5038508;28;20489;-79
2023/12/17 09:17:06;;;;;;;16.37;14.97;;;10.20;99.90;;;;;;5038069;28;20486;-79
2023/12/17 09:19:35;;;;;;;18.10;16.67;;;10.20;99.90;;;;;;5038055;28;20501;-79
2023/12/17 09:22:04;;;;;;;17.47;16.00;;;10.20;99.90;;;;;;5038847;28;20541;-79
2023/12/17 09:24:33;;;;;;;17.50;16.10;;;10.20;99.90;;;;;;5039257;28;20513;-80
2023/12/17 09:27:02;;;;;;;16.70;15.27;;;10.20;99.90;;;;;;5037470;28;20829;-80
2023/12/17 09:29:30;;;;;;;14.23;12.93;;;10.20;99.90;;;;;;5037375;28;20443;-80
2023/12/17 09:31:58;;;;;;;13.17;12.00;;;10.20;99.90;;;;;;5037606;28;20466;-77
2023/12/17 09:34:30;;;;;;;11.23;10.33;;;10.20;99.90;;;;;;5038052;28;20462;-79
2023/12/17 09:37:00;;;;;;;12.23;11.10;;;10.20;99.90;;;;;;5037497;28;20487;-80
2023/12/17 09:39:28;;;;;;;11.30;10.30;;;10.20;99.90;;;;;;5039409;28;20503;-81
2023/12/17 09:41:57;;;;;;;9.63;8.70;;;10.20;99.90;;;;;;5037782;28;20454;-81
2023/12/17 09:44:27;;;;;;;9.93;9.10;;;10.20;99.90;;;;;;5038033;28;20470;-79
2023/12/17 09:46:55;;;;;;;10.10;9.17;;;10.30;99.90;;;;;;5037374;28;20968;-79
2023/12/17 09:49:23;;;;;;;12.17;9.20;;;10.30;99.90;;;;;;5037350;28;20450;-79
2023/12/17 09:51:59;;;;;;;8.47;7.67;;;10.30;99.90;;;;;;5037675;28;20467;-81
2023/12/17 09:54:29;;;;;;;10.40;9.47;;;10.30;99.90;;;;;;5037430;28;21003;-80
2023/12/17 09:56:59;;;;;;;10.23;9.23;;;10.30;99.90;;;;;;5037242;28;20447;-80
2023/12/17 09:59:28;;;;;;;10.03;9.03;;;10.30;99.90;;;;;;5037012;28;20453;-80
2023/12/17 10:01:57;;;;;;;9.30;8.50;;;10.30;99.90;;;;;;5038347;28;20526;-80
2023/12/17 10:04:26;;;;;;;9.80;8.80;;;10.20;99.90;;;;;;5037164;28;20521;-82
2023/12/17 10:06:54;;;;;;;10.43;9.30;;;10.30;99.90;;;;;;5036705;28;20637;-79
2023/12/17 10:09:23;;;;;;;10.60;9.50;;;10.30;99.90;;;;;;5035564;28;20494;-81
2023/12/17 10:11:53;;;;;;;11.03;9.93;;;10.30;99.90;;;;;;5036761;28;20470;-81
2023/12/17 10:14:22;;;;;;;11.93;10.37;;;10.30;99.90;;;;;;5037107;28;20463;-80
2023/12/17 10:16:51;;;;;;;11.03;9.93;;;10.30;99.90;;;;;;5037137;28;20459;-81
2023/12/17 10:19:20;;;;;;;11.73;9.70;;;10.30;99.90;;;;;;5036704;28;20545;-81
2023/12/17 10:21:50;;;;;;;11.53;10.30;;;10.40;99.90;;;;;;5036855;28;20463;-81
2023/12/17 10:24:19;;;;;;;11.07;9.97;;;10.40;99.90;;;;;;5035865;28;20980;-80
2023/12/17 10:26:49;;;;;;;11.10;9.67;;;10.40;99.90;;;;;;5037601;28;20435;-80
2023/12/17 10:29:21;;;;;;;12.60;10.93;;;10.40;99.90;;;;;;5036538;28;20447;-80
2023/12/17 10:31:50;;;;;;;12.40;11.10;;;10.40;99.90;;;;;;5036221;28;20467;-81
2023/12/17 10:34:20;;;;;;;13.10;11.67;;;10.40;99.90;;;;;;5037477;28;20545;-80
2023/12/17 10:36:50;;;;;;;12.20;11.00;;;10.40;99.90;;;;;;5036005;28;20444;-80
2023/12/17 10:39:20;;;;;;;13.47;12.10;;;10.40;99.90;;;;;;5036232;28;20450;-81
2023/12/17 10:41:49;;;;;;;13.20;11.40;;;10.50;99.90;;;;;;5035959;28;20975;-81
2023/12/17 10:44:21;;;;;;;14.43;12.90;;;10.50;99.90;;;;;;5037319;28;20542;-80
2023/12/17 10:46:51;;;;;;;13.80;12.10;;;10.50;99.90;;;;;;5035984;28;20450;-81
2023/12/17 10:49:21;;;;;;;14.50;12.77;;;10.50;99.90;;;;;;5036496;28;20512;-82
2023/12/17 10:51:52;;;;;;;17.53;13.97;;;10.50;99.90;;;;;;5036330;28;20481;-82
2023/12/17 10:54:20;;;;;;;15.97;13.17;;;10.50;99.90;;;;;;5035859;28;20497;-81
2023/12/17 10:56:54;;;;;;;15.43;13.20;;;10.50;99.90;;;;;;5035924;28;20477;-81
2023/12/17 10:59:27;;;;;;;14.73;13.20;;;10.50;99.90;;;;;;5036357;28;20447;-81
2023/12/17 11:02:11;;;;;;;16.50;14.30;;;10.60;99.90;;;;;;5035791;28;20550;-82
2023/12/17 11:04:45;;;;;;;15.03;13.33;;;10.60;99.90;;;;;;5036211;28;20499;-82
2023/12/17 11:07:18;;;;;;;16.73;15.03;;;10.60;99.90;;;;;;5035888;28;20496;-80
2023/12/17 11:10:02;;;;;;;18.27;15.33;;;10.60;99.90;;;;;;5037150;28;20426;-82
2023/12/17 11:12:30;;;;;;;17.23;13.77;;;10.60;99.90;;;;;;5036779;28;20986;-81
2023/12/17 11:15:01;;;;;;;18.27;14.83;;;10.60;99.90;;;;;;5035535;28;20471;-80
2023/12/17 11:17:31;;;;;;;16.80;14.63;;;10.70;99.90;;;;;;5035433;28;20457;-81
2023/12/17 11:20:02;;;;;;;16.53;14.67;;;10.60;99.90;;;;;;5034414;28;20795;-82
2023/12/17 11:22:35;;;;;;;17.47;14.93;;;10.70;99.90;;;;;;5035747;28;20447;-81
2023/12/17 11:25:04;;;;;;;16.57;14.87;;;10.70;99.90;;;;;;5035697;28;20477;-82
2023/12/17 11:27:33;;;;;;;18.20;15.43;;;10.60;99.90;;;;;;5035260;28;20462;-81
2023/12/17 11:30:28;;;;;;;17.10;14.97;;;10.70;99.90;;;;;;5036653;28;20433;-80
2023/12/17 11:32:58;;;;;;;15.70;13.07;;;10.70;99.90;;;;;;5035221;28;20506;-82
2023/12/17 11:35:28;;;;;;;16.57;14.80;;;10.70;99.90;;;;;;5034606;28;20470;-80
2023/12/17 11:37:57;;;;;;;17.03;15.23;;;10.70;99.90;;;;;;5035263;28;20493;-81
2023/12/17 11:40:27;;;;;;;17.13;15.07;;;10.70;99.90;;;;;;5036317;28;20443;-81
2023/12/17 11:43:02;;;;;;;16.37;13.77;;;10.70;99.90;;;;;;5034610;28;20451;-81
2023/12/17 11:45:36;;;;;;;15.10;13.50;;;10.70;99.90;;;;;;5034349;28;20470;-81
2023/12/17 11:48:10;;;;;;;16.77;15.07;;;10.70;99.90;;;;;;5034334;28;20827;-81
2023/12/17 11:50:44;;;;;;;15.93;14.23;;;10.70;99.90;;;;;;5034595;28;20510;-81
2023/12/17 11:53:14;;;;;;;18.17;15.43;;;10.70;99.90;;;;;;5034289;28;20470;-81
2023/12/17 11:55:42;;;;;;;15.57;13.90;;;10.70;99.90;;;;;;5034583;28;20514;-81
2023/12/17 11:58:11;;;;;;;15.93;14.30;;;10.70;99.90;;;;;;5035875;28;20478;-81
2023/12/17 12:00:40;;;;;;;16.47;14.20;;;10.70;99.90;;;;;;5034675;28;20475;-82
2023/12/17 12:03:09;;;;;;;18.47;14.77;;;10.70;99.90;;;;;;5036007;28;20431;-81
2023/12/17 12:05:37;;;;;;;15.90;14.30;;;10.80;99.90;;;;;;5034099;28;20478;-81
2023/12/17 12:08:06;;;;;;;17.00;15.20;;;10.80;99.90;;;;;;5033987;28;20622;-81
2023/12/17 12:10:35;;;;;;;16.43;14.40;;;10.80;99.90;;;;;;5034296;28;20500;-81
2023/12/17 12:13:04;;;;;;;15.53;13.93;;;10.80;99.90;;;;;;5034046;28;20897;-81
2023/12/17 12:15:33;;;;;;;17.03;15.30;;;10.80;99.90;;;;;;5033801;28;20563;-81
2023/12/17 12:18:02;;;;;;;18.37;16.47;;;10.80;99.90;;;;;;5034118;28;20451;-80
2023/12/17 12:20:37;;;;;;;16.50;14.33;;;10.80;99.90;;;;;;5033730;28;20462;-81
2023/12/17 12:23:11;;;;;;;15.97;14.27;;;10.80;99.90;;;;;;5024656;28;20483;-82
2023/12/17 12:25:40;;;;;;;16.90;15.20;;;10.80;99.90;;;;;;5013974;28;20474;-81
2023/12/17 12:28:15;;;;;;;16.97;15.27;;;10.80;99.90;;;;;;5014681;28;20443;-81
2023/12/17 12:30:44;;;;;;;15.33;13.80;;;10.80;99.90;;;;;;5014597;28;20925;-80
2023/12/17 12:33:15;;;;;;;16.27;14.57;;;10.80;99.90;;;;;;5017561;28;21063;-83
2023/12/17 12:35:45;;;;;;;17.03;15.23;;;10.80;99.90;;;;;;5017609;28;20491;-80
2023/12/17 12:38:21;;;;;;;17.03;14.97;;;10.80;99.90;;;;;;5017752;28;20491;-80